CheckWX is a tool to help pilots better visualize weather data.  It is not intended as a substitute for an official pre-flight weather briefing.

20:11:02 UTC

KGGW METAR
Wokal Field / Glasgow International Airport
Glasgow, Montana, USA
Current

18 mins ago

KGGW 231953Z AUTO 28014KT 10SM OVC090 19/02 A2984 RMK AO2 SLP105 T01940017
Observed
Apr-23 @ 19:53 UTC
Wind
  • 280° at 14 KTS
Visibility
10 SM
Flight Rules
VFR
Cloud Levels
  • Overcast at 9,000' AGL
Temperature
19°C / 66°F
Dewpoint
C / 36°F
Humidity
32%
Altimeter
29.84" Hg
Pressure
1010.52 hPa
Previous

1 hour ago

KGGW 231853Z AUTO 28016KT 10SM OVC100 20/01 A2984 RMK AO2 SLP104 T02000006
Observed
Apr-23 @ 18:53 UTC
Wind
  • 280° at 16 KTS
Visibility
10 SM
Flight Rules
VFR
Cloud Levels
  • Overcast at 10,000' AGL
Temperature
20°C / 68°F
Dewpoint
C / 34°F
Humidity
28%
Altimeter
29.84" Hg
Pressure
1010.52 hPa
Previous

2 hours ago

KGGW 231753Z AUTO 30015KT 10SM SCT100 20/01 A2985 RMK AO2 PK WND 31028/1655 SLP108 T02000006 10200 20094 55001
Observed
Apr-23 @ 17:53 UTC
Wind
  • 300° at 15 KTS
Visibility
10 SM
Flight Rules
VFR
Cloud Levels
  • Scattered at 10,000' AGL
Temperature
20°C / 68°F
Dewpoint
C / 34°F
Humidity
28%
Altimeter
29.85" Hg
Pressure
1010.82 hPa